KMDW

Chicago Midway International Airport

Code ICAO KMDW
Code IATA MDW
Nom Chicago Midway International Airport
Emplacement Chicago, Illinois, US
Élévation 620 pieds / 189 mètres
Latitude 41.78599930
Longitude -87.75240326
METAR KMDW 080653Z 36003KT 10SM FEW070 06/M01 A3010 RMK AO2 SLP196 T00561011 $
Informations extras Afficher cartes et CFS
Afficher NOTAMS
Piste Longueur Largeur Surface Élévation
04L 5507 ft 150 ft ASP 617 ft
04R 6446 ft 150 ft PEM 619 ft
13C 6522 ft 150 ft CON 608 ft
13L 5141 ft 150 ft ASP 606 ft
13R 3859 ft 60 ft CON 607 ft
22R 5507 ft 150 ft ASP 606 ft
22L 6446 ft 150 ft PEM 606 ft
31C 6522 ft 150 ft CON 612 ft
31R 5141 ft 150 ft ASP 608 ft
31L 3859 ft 60 ft CON 613 ft